Dalton, GA

6:49 PM EDT on May 27, 2015 (GMT -0400)
Russell | | Change Station
CLOSE
Current Station
Airport
Location: Rome,
Elevation: 643 ft
Nearby Weather Stations

Elev 643 ft 34.35 °N, 85.16 °W | Updated 56 minutes ago

Clear
Clear
82 °F
Feels Like 84 °F
N
5
Wind Variable Wind from East

Today
High -- | Low -- °F
--% Chance of Precip.
Yesterday
High -- | Low -- °F
Precip. -- in
6:29 AM 8:44 PM
Waxing Gibbous, 70% visible
Pressure 30.12 in
Visibility 10.0 miles
Clouds Scattered Clouds 4800 ft
Heat Index 84 °F
Dew Point 65 °F
Humidity 56%
Rainfall 0.00 in
Snow Depth Not available.
UV 3 out of 12
Pollen .80 out of 12
Air Quality Not available.
Flu Activity Sporadic
METAR KRMG 272153Z AUTO 08004KT 10SM SCT048 28/18 A3015 RMK AO2 SLP199 T02780183

More Conditions Fewer Conditions

Pressure 30.12 in
Visibility 10.0 miles
Clouds Scattered Clouds 4800 ft
Heat Index 84 °F
Dew Point 65 °F
Humidity 56%
Rainfall 0.00 in
Snow Depth Not available.
UV 3 out of 12
Pollen .80 out of 12
Air Quality Not available.
Flu Activity Sporadic
METAR KRMG 272153Z AUTO 08004KT 10SM SCT048 28/18 A3015 RMK AO2 SLP199 T02780183

More Conditions Fewer Conditions

10-Day Weather Forecast

Almanac

Astronomy

May. 27, 2015 Rise Set
Actual Time
Civil Twilight
Nautical Twilight
Astronomical Twilight
Moon
Length of Visible Light
Length of Day
Tomorrow will be .
, % of the Moon is Illuminated

Today's Extremes

State Highs State Lows

Community

WunderPhotos

Upload Photos

1,824,814 photos uploaded!

WunderBlogs® & News

Nearby

Air Quality

  Air Quality AQ Index Pollutant
Not available.

Snow Depth

Station Depth Elevation

Earthquake Activity

City Distance Mag. Time & Date
Minimum magnitude displayed is 2.5.

Coastal Water Temperatures

Place Temperature

Stations

Nearby Weather Stations

Station Location Temp. Windchill Dew Point Humidity Wind Precip. Elev Updated Type